Wetterdaten: Woche 03.12.07 - 09.12.07 (KW49)
Datum Zeit Temperatur Luftfeuchte Luftdruck Niederschlag Wind Richtung Sonnenschein Solar Taupunkt Windchill Windben
03.12.2007 00:00 7.7 C 83 % 999.0 hPa 0.6 l/m 19.6 km/h (3 Bft) SW 0.00 h 0 W/m 5.0 C 4.6 C 32.5 km/h (5 Bft)
03.12.2007 01:00 7.7 C 83 % 997.3 hPa 0.6 l/m 19.8 km/h (3 Bft) SW 0.00 h 0 W/m 5.1 C 4.5 C 33.1 km/h (5 Bft)
03.12.2007 02:00 8.4 C 75 % 996.5 hPa 0.0 l/m 12.8 km/h (3 Bft) SW 0.00 h 0 W/m 4.3 C 6.3 C 21.8 km/h (4 Bft)
03.12.2007 03:00 8.2 C 79 % 997.0 hPa 1.2 l/m 18.9 km/h (3 Bft) W-SW 0.00 h 0 W/m 4.8 C 5.3 C 29.8 km/h (5 Bft)
03.12.2007 04:00 7.1 C 82 % 998.4 hPa 0.6 l/m 23.1 km/h (4 Bft) W-SW 0.00 h 0 W/m 4.3 C 3.5 C 34.8 km/h (5 Bft)
03.12.2007 05:00 7.8 C 74 % 999.5 hPa 0.0 l/m 24.4 km/h (4 Bft) W 0.00 h 0 W/m 3.4 C 4.3 C 34.9 km/h (5 Bft)
03.12.2007 06:00 8.1 C 69 % 1000.4 hPa 0.0 l/m 22.7 km/h (4 Bft) W 0.00 h 0 W/m 2.8 C 4.8 C 32.8 km/h (5 Bft)
03.12.2007 07:00 7.9 C 71 % 1000.5 hPa 0.4 l/m 15.7 km/h (3 Bft) W-SW 0.00 h 0 W/m 3.0 C 5.3 C 24.2 km/h (4 Bft)
03.12.2007 08:00 6.8 C 82 % 1001.1 hPa 0.0 l/m 8.4 km/h (2 Bft) SW 0.00 h 11 W/m 3.9 C 5.3 C 14.5 km/h (3 Bft)
03.12.2007 09:00 6.4 C 87 % 1001.5 hPa 0.8 l/m 7.6 km/h (2 Bft) SW 0.00 h 19 W/m 4.5 C 5.1 C 13.9 km/h (3 Bft)
03.12.2007 10:00 6.6 C 86 % 1001.9 hPa 0.2 l/m 14.8 km/h (3 Bft) W 0.00 h 42 W/m 4.5 C 3.9 C 22.7 km/h (4 Bft)
03.12.2007 11:00 7.4 C 80 % 1002.5 hPa 0.2 l/m 16.5 km/h (3 Bft) W 0.00 h 61 W/m 4.2 C 4.7 C 25.1 km/h (4 Bft)
03.12.2007 12:00 7.6 C 77 % 1002.8 hPa 0.0 l/m 23.8 km/h (4 Bft) W 0.00 h 92 W/m 3.8 C 4.0 C 33.3 km/h (5 Bft)
03.12.2007 13:00 6.7 C 85 % 1004.0 hPa 0.2 l/m 18.5 km/h (3 Bft) W 0.15 h 100 W/m 4.4 C 3.5 C 26.5 km/h (4 Bft)
03.12.2007 14:00 6.6 C 82 % 1004.9 hPa 0.0 l/m 22.9 km/h (4 Bft) W 0.38 h 109 W/m 3.7 C 2.8 C 32.6 km/h (5 Bft)
03.12.2007 15:00 6.5 C 81 % 1006.5 hPa 0.0 l/m 13.7 km/h (3 Bft) W 0.50 h 78 W/m 3.4 C 3.9 C 20.7 km/h (4 Bft)
03.12.2007 16:00 6.3 C 79 % 1007.6 hPa 0.0 l/m 16.3 km/h (3 Bft) W 0.03 h 13 W/m 3.0 C 3.2 C 24.5 km/h (4 Bft)
03.12.2007 17:00 6.3 C 79 % 1008.5 hPa 0.0 l/m 18.8 km/h (3 Bft) W 0.00 h 0 W/m 2.9 C 2.8 C 27.7 km/h (4 Bft)
03.12.2007 18:00 6.0 C 79 % 1009.6 hPa 0.0 l/m 9.8 km/h (2 Bft) W 0.00 h 0 W/m 2.7 C 4.1 C 15.1 km/h (3 Bft)
03.12.2007 19:00 5.6 C 79 % 1010.5 hPa 0.0 l/m 4.4 km/h (1 Bft) SW 0.00 h 0 W/m 2.3 C 5.0 C 7.8 km/h (2 Bft)
03.12.2007 20:00 5.9 C 78 % 1010.5 hPa 0.0 l/m 5.0 km/h (1 Bft) S-SW 0.00 h 0 W/m 2.4 C 5.2 C 9.4 km/h (2 Bft)
03.12.2007 21:00 5.3 C 82 % 1010.2 hPa 0.0 l/m 5.9 km/h (2 Bft) S-SW 0.00 h 0 W/m 2.4 C 4.2 C 11.0 km/h (2 Bft)
03.12.2007 22:00 4.8 C 84 % 1009.8 hPa 0.0 l/m 5.8 km/h (2 Bft) S-SO 0.00 h 0 W/m 2.2 C 3.6 C 11.5 km/h (2 Bft)
03.12.2007 23:00 4.9 C 84 % 1009.2 hPa 0.2 l/m 4.5 km/h (1 Bft) S-SW 0.00 h 0 W/m 2.5 C 4.1 C 9.3 km/h (2 Bft)
04.12.2007 00:00 4.9 C 86 % 1008.5 hPa 0.4 l/m 8.3 km/h (2 Bft) SW 0.00 h 0 W/m 2.7 C 3.0 C 15.8 km/h (3 Bft)
04.12.2007 01:00 4.4 C 90 % 1008.5 hPa 2.2 l/m 10.8 km/h (2 Bft) W 0.00 h 0 W/m 3.0 C 2.1 C 17.5 km/h (3 Bft)
04.12.2007 02:00 4.9 C 92 % 1010.0 hPa 0.0 l/m 14.6 km/h (3 Bft) W 0.00 h 0 W/m 3.6 C 1.7 C 21.6 km/h (4 Bft)
04.12.2007 03:00 5.3 C 88 % 1010.8 hPa 0.2 l/m 19.2 km/h (3 Bft) W 0.00 h 0 W/m 3.5 C 1.7 C 29.7 km/h (5 Bft)
04.12.2007 04:00 5.2 C 87 % 1011.9 hPa 0.0 l/m 12.9 km/h (3 Bft) W 0.00 h 0 W/m 3.2 C 2.5 C 19.5 km/h (3 Bft)
04.12.2007 05:00 4.9 C 90 % 1012.7 hPa 0.0 l/m 9.1 km/h (2 Bft) W 0.00 h 0 W/m 3.3 C 2.8 C 13.7 km/h (3 Bft)
04.12.2007 06:00 4.9 C 88 % 1013.7 hPa 0.0 l/m 12.0 km/h (2 Bft) W 0.00 h 0 W/m 3.1 C 2.2 C 17.8 km/h (3 Bft)
04.12.2007 07:00 4.9 C 88 % 1014.9 hPa 0.0 l/m 8.9 km/h (2 Bft) W-NW 0.00 h 0 W/m 3.1 C 2.9 C 13.8 km/h (3 Bft)
04.12.2007 08:00 4.9 C 89 % 1016.3 hPa 0.0 l/m 11.5 km/h (2 Bft) W 0.02 h 23 W/m 3.3 C 2.3 C 17.7 km/h (3 Bft)
04.12.2007 09:00 5.3 C 88 % 1017.3 hPa 0.0 l/m 7.8 km/h (2 Bft) W 0.03 h 78 W/m 3.4 C 3.6 C 12.9 km/h (3 Bft)
04.12.2007 10:00 6.0 C 85 % 1018.7 hPa 0.0 l/m 6.1 km/h (2 Bft) W 0.02 h 116 W/m 3.6 C 4.9 C 9.6 km/h (2 Bft)
04.12.2007 11:00 6.4 C 82 % 1019.7 hPa 0.0 l/m 7.1 km/h (2 Bft) W 0.07 h 152 W/m 3.6 C 5.1 C 10.9 km/h (2 Bft)
04.12.2007 12:00 6.6 C 80 % 1020.7 hPa 0.0 l/m 9.5 km/h (2 Bft) W 0.00 h 106 W/m 3.5 C 4.8 C 15.1 km/h (3 Bft)
04.12.2007 13:00 6.8 C 80 % 1021.3 hPa 0.0 l/m 7.5 km/h (2 Bft) W-SW 0.00 h 90 W/m 3.5 C 5.5 C 11.6 km/h (2 Bft)
04.12.2007 14:00 6.9 C 78 % 1021.9 hPa 0.0 l/m 10.3 km/h (2 Bft) W 0.00 h 53 W/m 3.3 C 5.0 C 15.7 km/h (3 Bft)
04.12.2007 15:00 6.8 C 76 % 1022.5 hPa 0.0 l/m 9.2 km/h (2 Bft) W 0.00 h 24 W/m 2.8 C 5.1 C 14.4 km/h (3 Bft)
04.12.2007 16:00 6.7 C 75 % 1023.7 hPa 0.0 l/m 4.5 km/h (1 Bft) W-SW 0.00 h 5 W/m 2.6 C 6.2 C 7.8 km/h (2 Bft)
04.12.2007 17:00 6.4 C 78 % 1024.6 hPa 0.0 l/m 3.7 km/h (1 Bft) S 0.00 h 0 W/m 2.8 C 6.0 C 7.1 km/h (2 Bft)
04.12.2007 18:00 6.2 C 82 % 1025.5 hPa 0.0 l/m 5.7 km/h (1 Bft) S-SO 0.00 h 0 W/m 3.4 C 5.3 C 10.1 km/h (2 Bft)
04.12.2007 19:00 6.1 C 86 % 1026.2 hPa 0.4 l/m 5.1 km/h (1 Bft) S-SO 0.00 h 0 W/m 4.0 C 5.3 C 8.1 km/h (2 Bft)
04.12.2007 20:00 5.7 C 88 % 1026.3 hPa 0.0 l/m 1.6 km/h (1 Bft) S-SO 0.00 h 0 W/m 3.9 C 5.7 C 3.2 km/h (1 Bft)
04.12.2007 21:00 5.2 C 91 % 1026.2 hPa 0.0 l/m 0.4 km/h (0 Bft) N 0.00 h 0 W/m 3.8 C 5.2 C 1.0 km/h (0 Bft)
04.12.2007 22:00 4.9 C 93 % 1026.1 hPa 0.0 l/m 1.8 km/h (1 Bft) O-SO 0.00 h 0 W/m 3.9 C 4.7 C 2.9 km/h (1 Bft)
04.12.2007 23:00 4.8 C 94 % 1025.9 hPa 0.0 l/m 0.0 km/h (0 Bft) O-SO 0.00 h 0 W/m 3.9 C 4.8 C 0.3 km/h (0 Bft)
05.12.2007 00:00 4.6 C 95 % 1026.2 hPa 0.0 l/m 0.0 km/h (0 Bft) O-SO 0.00 h 0 W/m 3.9 C 4.6 C 0.3 km/h (0 Bft)
05.12.2007 01:00 4.6 C 95 % 1026.0 hPa 0.0 l/m 0.0 km/h (0 Bft) O-SO 0.00 h 0 W/m 3.9 C 4.6 C 0.4 km/h (0 Bft)
05.12.2007 02:00 3.7 C 95 % 1026.0 hPa 0.0 l/m 2.6 km/h (1 Bft) O-SO 0.00 h 0 W/m 3.0 C 3.6 C 3.7 km/h (1 Bft)
05.12.2007 03:00 3.8 C 97 % 1026.1 hPa 0.0 l/m 0.1 km/h (0 Bft) O-SO 0.00 h 0 W/m 3.4 C 3.8 C 0.3 km/h (0 Bft)
05.12.2007 04:00 3.9 C 97 % 1026.0 hPa 0.0 l/m 1.7 km/h (1 Bft) O-SO 0.00 h 0 W/m 3.5 C 3.9 C 2.5 km/h (1 Bft)
05.12.2007 05:00 4.5 C 97 % 1026.1 hPa 0.0 l/m 2.0 km/h (1 Bft) O-SO 0.00 h 0 W/m 4.0 C 4.5 C 4.0 km/h (1 Bft)
05.12.2007 06:00 4.9 C 92 % 1025.8 hPa 0.0 l/m 0.8 km/h (0 Bft) SO 0.00 h 0 W/m 3.7 C 4.9 C 1.9 km/h (1 Bft)
05.12.2007 07:00 4.4 C 91 % 1025.7 hPa 0.0 l/m 2.1 km/h (1 Bft) SO 0.00 h 5 W/m 3.1 C 4.4 C 3.7 km/h (1 Bft)
05.12.2007 08:00 4.3 C 88 % 1025.8 hPa 0.0 l/m 3.0 km/h (1 Bft) O-SO 0.05 h 15 W/m 2.5 C 4.1 C 4.4 km/h (1 Bft)
05.12.2007 09:00 4.7 C 86 % 1025.7 hPa 0.0 l/m 1.6 km/h (1 Bft) O-SO 0.43 h 76 W/m 2.5 C 4.6 C 3.1 km/h (1 Bft)
05.12.2007 10:00 6.0 C 81 % 1025.0 hPa 0.0 l/m 1.0 km/h (0 Bft) O-SO 0.23 h 86 W/m 3.0 C 5.9 C 2.7 km/h (1 Bft)
05.12.2007 11:00 7.5 C 75 % 1024.1 hPa 0.0 l/m 3.5 km/h (1 Bft) S-SO 1.00 h 272 W/m 3.3 C 7.2 C 6.9 km/h (2 Bft)
05.12.2007 12:00 8.5 C 71 % 1023.1 hPa 0.0 l/m 2.9 km/h (1 Bft) S-SO 1.00 h 261 W/m 3.6 C 8.4 C 6.0 km/h (2 Bft)
05.12.2007 13:00 9.0 C 70 % 1022.5 hPa 0.0 l/m 3.2 km/h (1 Bft) S 1.00 h 249 W/m 3.8 C 8.9 C 6.7 km/h (2 Bft)
05.12.2007 14:00 9.2 C 69 % 1022.3 hPa 0.0 l/m 4.3 km/h (1 Bft) S 0.67 h 149 W/m 3.9 C 8.9 C 8.8 km/h (2 Bft)
05.12.2007 15:00 9.2 C 70 % 1021.9 hPa 0.0 l/m 2.9 km/h (1 Bft) S 0.55 h 73 W/m 4.2 C 9.2 C 6.2 km/h (2 Bft)
05.12.2007 16:00 8.2 C 73 % 1021.7 hPa 0.0 l/m 5.0 km/h (1 Bft) S 0.02 h 13 W/m 3.6 C 7.7 C 9.6 km/h (2 Bft)
05.12.2007 17:00 7.2 C 75 % 1021.6 hPa 0.0 l/m 1.0 km/h (0 Bft) SW 0.00 h 0 W/m 3.1 C 7.2 C 2.8 km/h (1 Bft)
05.12.2007 18:00 6.6 C 78 % 1021.6 hPa 0.0 l/m 1.4 km/h (1 Bft) S 0.00 h 0 W/m 3.0 C 6.5 C 3.2 km/h (1 Bft)
05.12.2007 19:00 6.1 C 80 % 1021.6 hPa 0.0 l/m 1.3 km/h (1 Bft) S-SO 0.00 h 0 W/m 2.9 C 6.0 C 3.2 km/h (1 Bft)
05.12.2007 20:00 4.0 C 90 % 1022.0 hPa 0.0 l/m 0.6 km/h (0 Bft) N-NW 0.00 h 0 W/m 2.6 C 4.0 C 1.7 km/h (1 Bft)
05.12.2007 21:00 4.1 C 94 % 1022.3 hPa 0.2 l/m 1.4 km/h (1 Bft) SO 0.00 h 0 W/m 3.2 C 4.0 C 2.6 km/h (1 Bft)
05.12.2007 22:00 5.3 C 96 % 1022.1 hPa 1.8 l/m 3.6 km/h (1 Bft) S-SO 0.00 h 0 W/m 4.6 C 4.9 C 5.6 km/h (1 Bft)
05.12.2007 23:00 5.9 C 97 % 1022.2 hPa 0.8 l/m 1.6 km/h (1 Bft) S-SW 0.00 h 0 W/m 5.4 C 5.8 C 3.4 km/h (1 Bft)
06.12.2007 00:00 6.2 C 98 % 1022.3 hPa 0.0 l/m 2.9 km/h (1 Bft) S 0.00 h 0 W/m 6.0 C 6.0 C 6.2 km/h (2 Bft)
06.12.2007 01:00 6.7 C 97 % 1022.0 hPa 0.0 l/m 6.2 km/h (2 Bft) SW 0.00 h 0 W/m 6.3 C 5.7 C 11.9 km/h (2 Bft)
06.12.2007 02:00 7.2 C 94 % 1022.1 hPa 0.2 l/m 6.7 km/h (2 Bft) S-SW 0.00 h 0 W/m 6.3 C 6.1 C 13.6 km/h (3 Bft)
06.12.2007 03:00 7.7 C 92 % 1022.0 hPa 0.6 l/m 8.1 km/h (2 Bft) S 0.00 h 0 W/m 6.6 C 6.4 C 15.2 km/h (3 Bft)
06.12.2007 04:00 7.9 C 94 % 1022.3 hPa 0.0 l/m 4.2 km/h (1 Bft) SW 0.00 h 0 W/m 6.9 C 7.5 C 8.3 km/h (2 Bft)
06.12.2007 05:00 8.0 C 93 % 1022.8 hPa 0.0 l/m 3.6 km/h (1 Bft) W-SW 0.00 h 0 W/m 6.9 C 7.8 C 6.8 km/h (2 Bft)
06.12.2007 06:00 8.0 C 93 % 1023.0 hPa 1.4 l/m 5.2 km/h (1 Bft) S 0.00 h 0 W/m 7.0 C 7.4 C 8.8 km/h (2 Bft)
06.12.2007 07:00 7.9 C 92 % 1023.9 hPa 0.0 l/m 11.7 km/h (2 Bft) W 0.00 h 0 W/m 6.6 C 5.9 C 17.9 km/h (3 Bft)
06.12.2007 08:00 7.2 C 92 % 1024.1 hPa 0.0 l/m 5.0 km/h (1 Bft) W-SW 0.00 h 15 W/m 6.0 C 6.5 C 8.4 km/h (2 Bft)
06.12.2007 09:00 7.6 C 92 % 1024.6 hPa 0.0 l/m 5.3 km/h (1 Bft) S 0.22 h 85 W/m 6.4 C 7.1 C 9.2 km/h (2 Bft)
06.12.2007 10:00 9.4 C 83 % 1024.7 hPa 0.0 l/m 8.6 km/h (2 Bft) W 0.52 h 143 W/m 6.6 C 8.3 C 13.1 km/h (3 Bft)
06.12.2007 11:00 10.0 C 77 % 1025.0 hPa 0.0 l/m 8.8 km/h (2 Bft) W 0.22 h 157 W/m 6.2 C 9.6 C 13.9 km/h (3 Bft)
06.12.2007 12:00 10.6 C 74 % 1024.4 hPa 0.0 l/m 6.9 km/h (2 Bft) W-SW 0.65 h 194 W/m 6.2 C 10.6 C 11.1 km/h (2 Bft)
06.12.2007 13:00 11.2 C 67 % 1023.4 hPa 0.0 l/m 8.8 km/h (2 Bft) W 0.27 h 156 W/m 5.3 C 11.2 C 13.6 km/h (3 Bft)
06.12.2007 14:00 11.0 C 72 % 1022.3 hPa 0.0 l/m 4.5 km/h (1 Bft) W-SW 0.05 h 105 W/m 6.3 C 11.0 C 7.4 km/h (2 Bft)
06.12.2007 15:00 10.5 C 74 % 1021.7 hPa 0.0 l/m 3.8 km/h (1 Bft) W-SW 0.00 h 40 W/m 6.1 C 10.5 C 6.2 km/h (2 Bft)
06.12.2007 16:00 9.8 C 75 % 1021.3 hPa 0.0 l/m 3.0 km/h (1 Bft) W 0.00 h 10 W/m 5.5 C 9.7 C 4.8 km/h (1 Bft)
06.12.2007 17:00 9.3 C 76 % 1020.7 hPa 0.2 l/m 2.6 km/h (1 Bft) W 0.00 h 0 W/m 5.3 C 9.2 C 5.1 km/h (1 Bft)
06.12.2007 18:00 8.8 C 82 % 1019.9 hPa 0.4 l/m 2.6 km/h (1 Bft) W 0.00 h 0 W/m 5.8 C 8.7 C 4.7 km/h (1 Bft)
06.12.2007 19:00 7.9 C 91 % 1019.5 hPa 1.8 l/m 1.6 km/h (1 Bft) S-SO 0.00 h 0 W/m 6.4 C 7.8 C 3.6 km/h (1 Bft)
06.12.2007 20:00 7.4 C 95 % 1019.3 hPa 0.6 l/m 1.2 km/h (1 Bft) SW 0.00 h 0 W/m 6.7 C 7.4 C 3.3 km/h (1 Bft)
06.12.2007 21:00 7.4 C 95 % 1018.6 hPa 1.8 l/m 3.3 km/h (1 Bft) SW 0.00 h 0 W/m 6.7 C 7.2 C 7.1 km/h (2 Bft)
06.12.2007 22:00 7.4 C 95 % 1017.6 hPa 1.4 l/m 3.7 km/h (1 Bft) S 0.00 h 0 W/m 6.6 C 7.1 C 8.1 km/h (2 Bft)
06.12.2007 23:00 7.7 C 94 % 1016.6 hPa 1.8 l/m 5.7 km/h (1 Bft) SW 0.00 h 0 W/m 6.8 C 6.9 C 10.2 km/h (2 Bft)
07.12.2007 00:00 7.7 C 95 % 1015.7 hPa 2.4 l/m 7.7 km/h (2 Bft) SW 0.00 h 0 W/m 7.0 C 6.4 C 14.8 km/h (3 Bft)
07.12.2007 01:00 7.6 C 96 % 1014.5 hPa 2.8 l/m 7.4 km/h (2 Bft) S 0.00 h 0 W/m 7.1 C 6.4 C 14.3 km/h (3 Bft)
07.12.2007 02:00 7.9 C 97 % 1013.6 hPa 2.4 l/m 7.0 km/h (2 Bft) S-SW 0.00 h 0 W/m 7.4 C 6.8 C 13.6 km/h (3 Bft)
07.12.2007 03:00 8.2 C 97 % 1012.4 hPa 1.8 l/m 6.9 km/h (2 Bft) S 0.00 h 0 W/m 7.8 C 7.3 C 13.5 km/h (3 Bft)
07.12.2007 04:00 8.7 C 96 % 1011.4 hPa 1.8 l/m 4.6 km/h (1 Bft) S 0.00 h 0 W/m 8.1 C 8.2 C 9.3 km/h (2 Bft)
07.12.2007 05:00 9.0 C 97 % 1011.0 hPa 1.0 l/m 3.1 km/h (1 Bft) W-SW 0.00 h 0 W/m 8.5 C 8.8 C 5.9 km/h (2 Bft)
07.12.2007 06:00 9.6 C 94 % 1010.0 hPa 0.2 l/m 7.7 km/h (2 Bft) SW 0.00 h 0 W/m 8.7 C 8.8 C 14.4 km/h (3 Bft)
07.12.2007 07:00 10.4 C 87 % 1009.3 hPa 0.8 l/m 10.2 km/h (2 Bft) SW 0.00 h 0 W/m 8.3 C 10.4 C 18.1 km/h (3 Bft)
07.12.2007 08:00 10.1 C 89 % 1009.1 hPa 0.8 l/m 9.2 km/h (2 Bft) W-SW 0.00 h 11 W/m 8.4 C 9.8 C 14.7 km/h (3 Bft)
07.12.2007 09:00 10.2 C 90 % 1008.8 hPa 0.4 l/m 13.2 km/h (3 Bft) W-SW 0.00 h 22 W/m 8.5 C 10.2 C 21.5 km/h (4 Bft)
07.12.2007 10:00 10.3 C 89 % 1008.2 hPa 0.6 l/m 14.3 km/h (3 Bft) W-SW 0.00 h 65 W/m 8.6 C 10.3 C 23.3 km/h (4 Bft)
07.12.2007 11:00 11.4 C 81 % 1007.0 hPa 0.0 l/m 14.5 km/h (3 Bft) W-SW 0.00 h 101 W/m 8.2 C 11.4 C 24.4 km/h (4 Bft)
07.12.2007 12:00 12.1 C 75 % 1005.5 hPa 0.0 l/m 16.9 km/h (3 Bft) W-SW 0.00 h 138 W/m 7.9 C 12.1 C 28.4 km/h (4 Bft)
07.12.2007 13:00 11.5 C 81 % 1005.2 hPa 2.2 l/m 15.7 km/h (3 Bft) SW 0.00 h 61 W/m 8.3 C 11.5 C 26.6 km/h (4 Bft)
07.12.2007 14:00 9.2 C 87 % 1006.6 hPa 1.2 l/m 25.7 km/h (4 Bft) W 0.00 h 50 W/m 7.2 C 6.2 C 37.1 km/h (5 Bft)
07.12.2007 15:00 9.2 C 77 % 1006.9 hPa 0.2 l/m 21.5 km/h (4 Bft) W 0.00 h 36 W/m 5.3 C 6.2 C 31.1 km/h (5 Bft)
07.12.2007 16:00 9.6 C 75 % 1007.4 hPa 0.0 l/m 15.0 km/h (3 Bft) W 0.00 h 5 W/m 5.4 C 7.5 C 22.4 km/h (4 Bft)
07.12.2007 17:00 9.2 C 73 % 1006.9 hPa 0.0 l/m 5.6 km/h (1 Bft) W 0.00 h 0 W/m 4.7 C 8.6 C 8.8 km/h (2 Bft)
07.12.2007 18:00 8.9 C 74 % 1006.7 hPa 0.4 l/m 6.3 km/h (2 Bft) W 0.00 h 0 W/m 4.5 C 8.1 C 10.3 km/h (2 Bft)
07.12.2007 19:00 6.9 C 86 % 1007.3 hPa 0.0 l/m 9.9 km/h (2 Bft) W 0.00 h 0 W/m 4.8 C 5.1 C 15.0 km/h (3 Bft)
07.12.2007 20:00 6.2 C 88 % 1007.6 hPa 0.0 l/m 2.1 km/h (1 Bft) W-NW 0.00 h 0 W/m 4.4 C 6.0 C 3.7 km/h (1 Bft)
07.12.2007 21:00 6.0 C 86 % 1007.9 hPa 0.4 l/m 13.9 km/h (3 Bft) W 0.00 h 0 W/m 3.8 C 3.4 C 20.8 km/h (4 Bft)
07.12.2007 22:00 5.3 C 89 % 1008.0 hPa 0.2 l/m 3.7 km/h (1 Bft) W 0.00 h 0 W/m 3.6 C 4.9 C 6.4 km/h (2 Bft)
07.12.2007 23:00 5.4 C 90 % 1008.0 hPa 0.6 l/m 4.9 km/h (1 Bft) W-SW 0.00 h 0 W/m 3.9 C 4.6 C 8.3 km/h (2 Bft)
08.12.2007 00:00 5.0 C 93 % 1008.8 hPa 0.6 l/m 5.6 km/h (1 Bft) SW 0.00 h 0 W/m 3.9 C 4.0 C 9.6 km/h (2 Bft)
08.12.2007 01:00 5.0 C 93 % 1009.2 hPa 0.2 l/m 5.8 km/h (1 Bft) W-SW 0.00 h 0 W/m 4.0 C 4.0 C 9.9 km/h (2 Bft)
08.12.2007 02:00 5.1 C 92 % 1010.1 hPa 0.0 l/m 4.2 km/h (1 Bft) W-SW 0.00 h 0 W/m 3.9 C 4.6 C 7.9 km/h (2 Bft)
08.12.2007 03:00 5.2 C 90 % 1010.5 hPa 0.0 l/m 6.4 km/h (2 Bft) W 0.00 h 0 W/m 3.7 C 4.0 C 10.8 km/h (2 Bft)
08.12.2007 04:00 5.3 C 90 % 1011.1 hPa 0.2 l/m 3.7 km/h (1 Bft) W 0.00 h 0 W/m 3.7 C 4.7 C 6.6 km/h (2 Bft)
08.12.2007 05:00 5.1 C 90 % 1012.0 hPa 0.0 l/m 12.2 km/h (2 Bft) W 0.00 h 0 W/m 3.5 C 2.5 C 18.1 km/h (3 Bft)
08.12.2007 06:00 4.9 C 88 % 1013.2 hPa 0.0 l/m 12.6 km/h (3 Bft) W 0.00 h 0 W/m 3.1 C 2.1 C 19.2 km/h (3 Bft)
08.12.2007 07:00 4.7 C 89 % 1014.4 hPa 0.0 l/m 12.2 km/h (2 Bft) W 0.00 h 0 W/m 3.0 C 1.9 C 19.2 km/h (3 Bft)
08.12.2007 08:00 4.6 C 87 % 1015.4 hPa 0.0 l/m 8.4 km/h (2 Bft) W 0.00 h 16 W/m 2.6 C 2.6 C 13.1 km/h (3 Bft)
08.12.2007 09:00 5.0 C 84 % 1015.9 hPa 0.0 l/m 5.9 km/h (2 Bft) W 0.00 h 54 W/m 2.6 C 3.8 C 9.2 km/h (2 Bft)
08.12.2007 10:00 5.4 C 82 % 1016.2 hPa 0.0 l/m 3.9 km/h (1 Bft) W-SW 0.08 h 61 W/m 2.6 C 4.9 C 6.6 km/h (2 Bft)
08.12.2007 11:00 5.3 C 81 % 1016.3 hPa 0.0 l/m 5.5 km/h (1 Bft) W-SW 0.02 h 98 W/m 2.3 C 4.3 C 8.6 km/h (2 Bft)
08.12.2007 12:00 5.7 C 76 % 1015.6 hPa 0.0 l/m 5.0 km/h (1 Bft) W 0.00 h 91 W/m 1.7 C 5.0 C 8.0 km/h (2 Bft)
08.12.2007 13:00 5.9 C 74 % 1014.9 hPa 0.0 l/m 8.5 km/h (2 Bft) W 0.03 h 83 W/m 1.6 C 4.2 C 12.8 km/h (3 Bft)
08.12.2007 14:00 6.1 C 76 % 1014.0 hPa 0.0 l/m 3.7 km/h (1 Bft) W 0.17 h 90 W/m 2.2 C 5.6 C 6.1 km/h (2 Bft)
08.12.2007 15:00 5.8 C 76 % 1013.4 hPa 0.0 l/m 4.0 km/h (1 Bft) W 0.05 h 44 W/m 1.8 C 5.2 C 6.7 km/h (2 Bft)
08.12.2007 16:00 5.5 C 77 % 1012.7 hPa 0.0 l/m 2.5 km/h (1 Bft) S-SO 0.00 h 6 W/m 1.8 C 5.4 C 4.8 km/h (1 Bft)
08.12.2007 17:00 4.8 C 82 % 1011.8 hPa 0.0 l/m 4.3 km/h (1 Bft) SO 0.00 h 0 W/m 2.0 C 4.1 C 6.0 km/h (2 Bft)
08.12.2007 18:00 4.5 C 82 % 1010.6 hPa 0.0 l/m 0.9 km/h (0 Bft) S-SO 0.00 h 0 W/m 1.6 C 4.4 C 2.2 km/h (1 Bft)
08.12.2007 19:00 4.5 C 79 % 1009.1 hPa 0.0 l/m 1.6 km/h (1 Bft) S 0.00 h 0 W/m 1.2 C 4.4 C 3.8 km/h (1 Bft)
08.12.2007 20:00 4.9 C 76 % 1007.7 hPa 0.0 l/m 4.0 km/h (1 Bft) S 0.00 h 0 W/m 1.0 C 4.4 C 8.1 km/h (2 Bft)
08.12.2007 21:00 5.2 C 75 % 1006.1 hPa 0.0 l/m 4.6 km/h (1 Bft) SW 0.00 h 0 W/m 1.1 C 4.5 C 8.9 km/h (2 Bft)
08.12.2007 22:00 4.5 C 83 % 1005.5 hPa 1.2 l/m 3.6 km/h (1 Bft) S-SO 0.00 h 0 W/m 1.9 C 4.1 C 6.8 km/h (2 Bft)
08.12.2007 23:00 3.4 C 90 % 1004.2 hPa 0.2 l/m 7.5 km/h (2 Bft) S-SO 0.00 h 0 W/m 2.0 C 1.6 C 13.9 km/h (3 Bft)
09.12.2007 00:00 3.7 C 91 % 1003.0 hPa 0.4 l/m 9.4 km/h (2 Bft) S 0.00 h 0 W/m 2.3 C 1.3 C 17.4 km/h (3 Bft)
09.12.2007 01:00 3.9 C 92 % 1001.7 hPa 0.4 l/m 11.7 km/h (2 Bft) S-SO 0.00 h 0 W/m 2.7 C 1.1 C 20.5 km/h (4 Bft)
09.12.2007 02:00 4.4 C 93 % 1000.4 hPa 0.2 l/m 9.2 km/h (2 Bft) S 0.00 h 0 W/m 3.3 C 2.2 C 17.7 km/h (3 Bft)
09.12.2007 03:00 5.0 C 91 % 999.4 hPa 0.2 l/m 10.3 km/h (2 Bft) S 0.00 h 0 W/m 3.8 C 2.8 C 18.7 km/h (3 Bft)
09.12.2007 04:00 5.3 C 92 % 998.5 hPa 1.0 l/m 8.2 km/h (2 Bft) S-SO 0.00 h 0 W/m 4.1 C 3.6 C 15.1 km/h (3 Bft)
09.12.2007 05:00 5.9 C 93 % 997.5 hPa 0.2 l/m 8.6 km/h (2 Bft) S-SO 0.00 h 0 W/m 4.8 C 4.1 C 17.1 km/h (3 Bft)
09.12.2007 06:00 6.4 C 92 % 997.0 hPa 0.0 l/m 8.6 km/h (2 Bft) SW 0.00 h 0 W/m 5.3 C 4.7 C 16.0 km/h (3 Bft)
09.12.2007 07:00 6.6 C 92 % 997.2 hPa 0.8 l/m 7.5 km/h (2 Bft) SW 0.00 h 0 W/m 5.5 C 5.3 C 13.9 km/h (3 Bft)
09.12.2007 08:00 6.6 C 95 % 997.8 hPa 1.0 l/m 4.4 km/h (1 Bft) S-SO 0.00 h 8 W/m 5.8 C 6.1 C 8.5 km/h (2 Bft)
09.12.2007 09:00 6.9 C 95 % 998.7 hPa 1.0 l/m 6.4 km/h (2 Bft) SW 0.00 h 25 W/m 6.2 C 5.9 C 10.8 km/h (2 Bft)
09.12.2007 10:00 7.5 C 94 % 999.2 hPa 0.0 l/m 4.2 km/h (1 Bft) S-SW 0.10 h 90 W/m 6.6 C 7.1 C 8.1 km/h (2 Bft)
09.12.2007 11:00 8.1 C 87 % 999.0 hPa 0.0 l/m 5.6 km/h (1 Bft) SW 0.08 h 108 W/m 6.1 C 7.4 C 10.6 km/h (2 Bft)
09.12.2007 12:00 8.7 C 82 % 997.9 hPa 0.0 l/m 5.2 km/h (1 Bft) W-SW 0.43 h 181 W/m 5.7 C 8.2 C 9.1 km/h (2 Bft)
09.12.2007 13:00 8.4 C 79 % 997.8 hPa 0.0 l/m 7.1 km/h (2 Bft) SW 0.00 h 55 W/m 5.0 C 7.4 C 13.2 km/h (3 Bft)
09.12.2007 14:00 8.3 C 78 % 998.0 hPa 0.0 l/m 5.3 km/h (1 Bft) SW 0.13 h 75 W/m 4.6 C 7.8 C 10.3 km/h (2 Bft)
09.12.2007 15:00 7.7 C 78 % 998.5 hPa 0.2 l/m 9.4 km/h (2 Bft) SW 0.00 h 15 W/m 4.1 C 6.2 C 16.4 km/h (3 Bft)
09.12.2007 16:00 6.0 C 84 % 999.2 hPa 0.0 l/m 5.8 km/h (2 Bft) SW 0.08 h 15 W/m 3.6 C 5.1 C 10.5 km/h (2 Bft)
09.12.2007 17:00 5.4 C 86 % 999.6 hPa 0.0 l/m 4.9 km/h (1 Bft) S 0.00 h 0 W/m 3.2 C 4.7 C 8.9 km/h (2 Bft)
09.12.2007 18:00 5.1 C 85 % 999.9 hPa 0.0 l/m 5.0 km/h (1 Bft) S-SW 0.00 h 0 W/m 2.8 C 4.3 C 9.8 km/h (2 Bft)
09.12.2007 19:00 4.9 C 83 % 1000.0 hPa 0.0 l/m 5.7 km/h (1 Bft) S 0.00 h 0 W/m 2.3 C 3.9 C 10.1 km/h (2 Bft)
09.12.2007 20:00 5.1 C 82 % 999.7 hPa 0.0 l/m 6.1 km/h (2 Bft) S 0.00 h 0 W/m 2.3 C 4.0 C 10.8 km/h (2 Bft)
09.12.2007 21:00 5.6 C 76 % 998.7 hPa 0.0 l/m 9.0 km/h (2 Bft) SW 0.00 h 0 W/m 1.8 C 3.8 C 16.4 km/h (3 Bft)
09.12.2007 22:00 5.2 C 79 % 998.0 hPa 0.0 l/m 9.1 km/h (2 Bft) S-SO 0.00 h 0 W/m 1.8 C 3.1 C 14.6 km/h (3 Bft)
09.12.2007 23:00 5.4 C 79 % 997.4 hPa 0.0 l/m 7.6 km/h (2 Bft) S 0.00 h 0 W/m 2.0 C 3.8 C 14.7 km/h (3 Bft)
Min-Datum _ 08.12.07 06.12.07 03.12.07 - 03.12.07 - - - 08.12.07 08.12.07 03.12.07
_ Min-Zeit 23:31 13:29 02:15 - 19:12 - - - 20:04 23:40 23:21
Minimum _ 3.2 C 63 % 996.4 hPa - 0.0 km/h (0 Bft) - - - 0.7 C -0.6 C 0.0 km/h (0 Bft)
Max-Datum _ 07.12.07 06.12.07 04.12.07 07.12.07 07.12.07 - 03.12.07 09.12.07 07.12.07 07.12.07 07.12.07
_ Max-Zeit 12:28 00:10 19:45 01:04 14:01 - 13:12 12:26 05:39 12:28 14:01
Maximum _ 12.3 C 99 % 1026.4 hPa 2.8 l/m 51.8 km/h
W (7 Bft)
- 0.02 h 390 W/m 9.0 C 12.3 C 67.8 km/h
W-NW (8 Bft)
Durchschnitt _ 6.7 C 85 % 1012.6 hPa #49.2 l/m 7.6 km/h (2 Bft) W #9:15 h 76 W/m 4.3 C 5.5 C 12.6 km/h (3 Bft)
© Kaiko 2007